createdAt,value
2023-05-23T00:00:59.140Z,4.47
2023-05-23T00:03:31.398Z,5.00
2023-05-23T00:05:59.062Z,5.10
2023-05-23T00:08:26.122Z,5.57
2023-05-23T00:10:52.918Z,4.60
2023-05-23T00:13:19.966Z,4.80
2023-05-23T00:15:48.686Z,5.10
2023-05-23T00:18:16.510Z,5.13
2023-05-23T00:20:43.433Z,5.03
2023-05-23T00:23:10.980Z,5.50
2023-05-23T00:25:38.304Z,5.30
2023-05-23T00:28:06.259Z,5.10
2023-05-23T00:30:33.994Z,5.07
2023-05-23T00:33:01.490Z,5.10
2023-05-23T00:35:28.356Z,5.03
2023-05-23T00:37:55.625Z,6.35
2023-05-23T00:40:22.994Z,4.72
2023-05-23T00:42:50.134Z,5.32
2023-05-23T00:45:19.818Z,5.40
2023-05-23T00:47:47.280Z,5.75
2023-05-23T00:50:16.894Z,5.72
2023-05-23T00:52:44.807Z,5.75
2023-05-23T00:55:12.238Z,5.07
2023-05-23T00:57:44.543Z,5.63
2023-05-23T01:00:12.597Z,5.47
2023-05-23T01:02:47.280Z,4.78
2023-05-23T01:05:17.668Z,5.30
2023-05-23T01:07:45.548Z,5.82
2023-05-23T01:10:13.408Z,5.00
2023-05-23T01:12:58.437Z,5.70
2023-05-23T01:15:47.491Z,5.40
2023-05-23T01:18:38.325Z,5.38
2023-05-23T01:21:32.018Z,5.57
2023-05-23T01:24:12.897Z,5.18
2023-05-23T01:27:04.735Z,5.30
2023-05-23T01:29:37.718Z,5.05
2023-05-23T01:32:06.766Z,5.75
2023-05-23T01:34:35.301Z,4.88
2023-05-23T01:37:02.067Z,5.45
2023-05-23T01:39:29.200Z,4.85
2023-05-23T01:41:56.010Z,5.60
2023-05-23T01:44:23.099Z,5.85
2023-05-23T01:46:49.882Z,4.85
2023-05-23T01:49:17.026Z,5.60
2023-05-23T01:51:44.101Z,5.72
2023-05-23T01:54:11.339Z,4.88
2023-05-23T01:56:38.130Z,4.90
2023-05-23T01:59:05.206Z,6.32
2023-05-23T02:01:32.047Z,4.90
2023-05-23T02:03:59.079Z,4.63
2023-05-23T02:06:25.896Z,5.32
2023-05-23T02:08:52.961Z,4.90
2023-05-23T02:11:19.679Z,5.20
2023-05-23T02:13:46.762Z,5.63
2023-05-23T02:16:14.048Z,5.47
2023-05-23T02:18:41.097Z,5.00
2023-05-23T02:21:07.856Z,5.47
2023-05-23T02:23:34.940Z,5.45
2023-05-23T02:26:01.786Z,5.72
2023-05-23T02:28:28.843Z,5.22
2023-05-23T02:30:56.201Z,5.25
2023-05-23T02:33:23.278Z,4.78
2023-05-23T02:35:51.541Z,5.90
2023-05-23T02:38:20.664Z,5.82
2023-05-23T02:40:47.481Z,4.88
2023-05-23T02:43:14.630Z,4.50
2023-05-23T02:45:41.599Z,4.85
2023-05-23T02:48:08.883Z,4.97
2023-05-23T02:50:35.663Z,5.90
2023-05-23T02:53:02.674Z,5.07
2023-05-23T02:55:29.541Z,5.32
2023-05-23T02:57:56.884Z,5.32
2023-05-23T03:00:23.668Z,5.15
2023-05-23T03:02:51.310Z,5.63
2023-05-23T03:05:18.788Z,5.20
2023-05-23T03:07:45.958Z,5.15
2023-05-23T03:10:12.721Z,5.22
2023-05-23T03:12:39.867Z,5.13
2023-05-23T03:15:07.065Z,5.15
2023-05-23T03:17:34.143Z,5.07
2023-05-23T03:20:00.957Z,5.05
2023-05-23T03:22:28.061Z,5.53
2023-05-23T03:24:54.863Z,4.93
2023-05-23T03:27:21.963Z,5.68
2023-05-23T03:29:48.707Z,5.50
2023-05-23T03:32:15.950Z,5.30
2023-05-23T03:34:42.817Z,5.47
2023-05-23T03:37:09.903Z,5.70
2023-05-23T03:39:39.369Z,5.50
2023-05-23T03:42:07.289Z,5.82
2023-05-23T03:44:34.080Z,4.95
2023-05-23T03:47:01.141Z,4.72
2023-05-23T03:49:27.990Z,5.38
2023-05-23T03:51:55.309Z,4.97
2023-05-23T03:54:22.063Z,5.38
2023-05-23T03:56:49.379Z,5.32
2023-05-23T03:59:16.151Z,5.72
2023-05-23T04:01:43.218Z,5.57
2023-05-23T04:04:10.095Z,5.50
2023-05-23T04:06:37.192Z,5.43
2023-05-23T04:09:05.629Z,5.55
2023-05-23T04:11:32.695Z,5.72
2023-05-23T04:13:59.509Z,6.13
2023-05-23T04:16:26.684Z,5.82
2023-05-23T04:18:54.409Z,5.82
2023-05-23T04:21:21.587Z,5.80
2023-05-23T04:23:48.932Z,5.82
2023-05-23T04:26:16.175Z,6.20
2023-05-23T04:28:46.306Z,6.38
2023-05-23T04:31:13.908Z,6.75
2023-05-23T04:33:41.223Z,6.70
2023-05-23T04:36:09.414Z,5.38
2023-05-23T04:38:38.506Z,6.47
2023-05-23T04:41:06.568Z,5.57
2023-05-23T04:43:37.360Z,6.15
2023-05-23T04:46:04.558Z,6.15
2023-05-23T04:48:31.630Z,5.47
2023-05-23T04:51:02.318Z,5.68
2023-05-23T04:53:29.083Z,5.78
2023-05-23T04:55:56.617Z,6.30
2023-05-23T04:58:23.637Z,5.90
2023-05-23T05:00:50.843Z,6.38
2023-05-23T05:03:17.768Z,6.18
2023-05-23T05:05:44.882Z,6.63
2023-05-23T05:08:11.673Z,6.40
2023-05-23T05:10:40.634Z,6.00
2023-05-23T05:13:07.544Z,6.30
2023-05-23T05:15:34.633Z,6.15
2023-05-23T05:18:01.450Z,5.80
2023-05-23T05:20:28.729Z,7.28
2023-05-23T05:22:57.208Z,6.75
2023-05-23T05:25:24.571Z,6.65
2023-05-23T05:27:52.533Z,6.47
2023-05-23T05:30:19.804Z,6.55
2023-05-23T05:32:46.787Z,6.55
2023-05-23T05:35:16.958Z,6.85
2023-05-23T05:37:43.804Z,6.38
2023-05-23T05:40:12.260Z,6.20
2023-05-23T05:42:38.984Z,6.35
2023-05-23T05:45:06.752Z,5.95
2023-05-23T05:47:33.468Z,7.20
2023-05-23T05:50:00.585Z,7.05
2023-05-23T05:52:27.310Z,6.47
2023-05-23T05:54:54.358Z,6.03
2023-05-23T05:57:21.171Z,6.43
2023-05-23T05:59:48.208Z,6.68
2023-05-23T06:02:14.988Z,6.78
2023-05-23T06:04:42.176Z,7.28
2023-05-23T06:07:09.491Z,6.38
2023-05-23T06:09:36.660Z,6.22
2023-05-23T06:12:03.587Z,6.80
2023-05-23T06:14:30.722Z,6.50
2023-05-23T06:16:57.899Z,6.03
2023-05-23T06:19:25.184Z,6.53
2023-05-23T06:21:52.937Z,6.47
2023-05-23T06:24:20.018Z,6.20
2023-05-23T06:26:46.774Z,6.72
2023-05-23T06:29:13.932Z,5.70
2023-05-23T06:31:40.753Z,6.22
2023-05-23T06:34:07.856Z,6.20
2023-05-23T06:36:34.651Z,6.00
2023-05-23T06:39:01.751Z,6.18
2023-05-23T06:41:28.502Z,6.50
2023-05-23T06:43:55.650Z,6.47
2023-05-23T06:46:22.494Z,6.65
2023-05-23T06:48:56.432Z,6.68
2023-05-23T06:51:29.756Z,5.63
2023-05-23T06:53:57.233Z,6.00
2023-05-23T06:56:24.131Z,6.25
2023-05-23T06:58:51.223Z,6.65
2023-05-23T07:01:17.998Z,6.80
2023-05-23T07:03:45.911Z,6.13
2023-05-23T07:06:12.774Z,7.38
2023-05-23T07:08:39.936Z,6.75
2023-05-23T07:11:06.816Z,6.45
2023-05-23T07:13:34.187Z,5.97
2023-05-23T07:16:00.977Z,6.88
2023-05-23T07:18:28.065Z,6.53
2023-05-23T07:20:54.868Z,6.53
2023-05-23T07:23:23.692Z,6.85
2023-05-23T07:26:01.866Z,6.15
2023-05-23T07:28:30.304Z,6.65
2023-05-23T07:30:58.471Z,6.45
2023-05-23T07:33:25.776Z,5.78
2023-05-23T07:35:52.663Z,6.32
2023-05-23T07:38:19.771Z,6.13
2023-05-23T07:40:52.741Z,5.35
2023-05-23T07:43:26.199Z,6.22
2023-05-23T07:45:52.981Z,5.50
2023-05-23T07:48:20.071Z,6.22
2023-05-23T07:50:46.789Z,6.60
2023-05-23T07:53:13.905Z,7.22
2023-05-23T07:55:41.210Z,5.88
2023-05-23T07:58:08.319Z,5.82
2023-05-23T08:00:35.145Z,6.10
2023-05-23T08:03:02.270Z,5.88
2023-05-23T08:05:29.242Z,5.97
2023-05-23T08:07:56.465Z,5.85
2023-05-23T08:10:23.308Z,5.95
2023-05-23T08:12:50.455Z,6.35
2023-05-23T08:15:17.342Z,5.65
2023-05-23T08:17:44.578Z,5.88
2023-05-23T08:20:12.276Z,5.45
2023-05-23T08:22:39.386Z,6.13
2023-05-23T08:25:06.355Z,6.07
2023-05-23T08:27:35.702Z,6.15
2023-05-23T08:30:03.959Z,5.57
2023-05-23T08:32:31.047Z,5.53
2023-05-23T08:34:58.433Z,6.15
2023-05-23T08:37:25.634Z,6.30
2023-05-23T08:39:52.430Z,5.40
2023-05-23T08:42:19.615Z,5.25
2023-05-23T08:44:46.529Z,5.72
2023-05-23T08:47:13.601Z,5.65
2023-05-23T08:49:41.024Z,5.63
2023-05-23T08:52:08.218Z,5.82
2023-05-23T08:54:35.431Z,5.55
2023-05-23T08:57:02.997Z,5.03
2023-05-23T08:59:29.792Z,5.57
2023-05-23T09:01:57.347Z,5.20
2023-05-23T09:04:24.243Z,6.00
2023-05-23T09:06:51.356Z,5.30
2023-05-23T09:09:18.338Z,5.38
2023-05-23T09:11:46.181Z,6.13
2023-05-23T09:14:14.671Z,5.53
2023-05-23T09:16:42.051Z,5.88
2023-05-23T09:19:13.220Z,5.72
2023-05-23T09:21:46.665Z,5.82
2023-05-23T09:24:13.405Z,5.25
2023-05-23T09:26:40.631Z,5.03
2023-05-23T09:29:07.793Z,4.95
2023-05-23T09:31:35.023Z,5.05
2023-05-23T09:34:01.936Z,5.38
2023-05-23T09:36:30.302Z,5.28
2023-05-23T09:38:57.139Z,5.10
2023-05-23T09:41:25.234Z,5.55
2023-05-23T09:43:52.654Z,4.80
2023-05-23T09:46:20.521Z,4.70
2023-05-23T09:48:52.301Z,5.03
2023-05-23T09:51:23.460Z,4.78
2023-05-23T09:53:50.339Z,5.55
2023-05-23T09:56:17.643Z,5.13
2023-05-23T09:58:47.367Z,4.43
2023-05-23T10:01:14.887Z,4.97
2023-05-23T10:03:56.075Z,4.70
2023-05-23T10:06:53.344Z,5.10
2023-05-23T10:09:21.233Z,4.53
2023-05-23T10:11:57.520Z,4.63
2023-05-23T10:14:24.277Z,4.22
2023-05-23T10:17:06.884Z,4.68
2023-05-23T10:19:43.580Z,3.97
2023-05-23T10:22:10.923Z,4.55
2023-05-23T10:24:37.867Z,4.25
2023-05-23T10:27:05.081Z,4.20
2023-05-23T10:29:33.681Z,4.35
2023-05-23T10:32:02.764Z,4.13
2023-05-23T10:34:32.574Z,4.50
2023-05-23T10:37:01.730Z,3.47
2023-05-23T10:39:34.804Z,3.85
2023-05-23T10:42:10.608Z,3.72
2023-05-23T10:44:37.367Z,4.15
2023-05-23T10:47:05.050Z,3.42
2023-05-23T10:49:48.391Z,4.22
2023-05-23T10:52:17.006Z,4.07
2023-05-23T10:54:53.378Z,3.97
2023-05-23T10:57:27.933Z,4.40
2023-05-23T10:59:54.808Z,4.30
2023-05-23T11:02:26.476Z,4.18
2023-05-23T11:05:19.602Z,3.85
2023-05-23T11:07:46.744Z,3.38
2023-05-23T11:10:16.772Z,3.83
2023-05-23T11:12:44.550Z,3.30
2023-05-23T11:15:17.302Z,3.83
2023-05-23T11:17:54.370Z,3.83
2023-05-23T11:20:23.619Z,3.85
2023-05-23T11:23:01.227Z,4.38
2023-05-23T11:25:54.047Z,4.70
2023-05-23T11:28:21.396Z,4.65
2023-05-23T11:30:48.768Z,4.63
2023-05-23T11:33:17.085Z,4.85
2023-05-23T11:35:47.918Z,4.65
2023-05-23T11:38:18.337Z,4.97
2023-05-23T11:40:46.419Z,4.82
2023-05-23T11:43:15.646Z,5.32
2023-05-23T11:45:42.816Z,4.65
2023-05-23T11:48:11.915Z,5.10
2023-05-23T11:50:49.057Z,5.10
2023-05-23T11:53:18.742Z,5.13
2023-05-23T11:55:55.991Z,4.82
2023-05-23T11:58:26.343Z,4.65
2023-05-23T12:00:55.253Z,4.65
2023-05-23T12:03:22.844Z,4.95
2023-05-23T12:05:49.738Z,4.93
2023-05-23T12:08:16.832Z,4.82
2023-05-23T12:10:53.155Z,5.32
2023-05-23T12:13:20.808Z,4.28
2023-05-23T12:15:49.441Z,4.57
2023-05-23T12:18:20.197Z,4.65
2023-05-23T12:20:49.368Z,3.75
2023-05-23T12:23:24.573Z,3.63
2023-05-23T12:25:54.824Z,4.03
2023-05-23T12:28:22.827Z,3.65
2023-05-23T12:30:49.671Z,3.75
2023-05-23T12:33:18.615Z,3.28
2023-05-23T12:35:45.557Z,3.28
2023-05-23T12:38:16.475Z,3.60
2023-05-23T12:40:43.666Z,3.00
2023-05-23T12:43:11.287Z,3.60
2023-05-23T12:45:38.320Z,3.38
2023-05-23T12:48:07.103Z,3.17
2023-05-23T12:50:34.278Z,3.13
2023-05-23T12:53:01.468Z,2.85
2023-05-23T12:55:28.359Z,3.00
2023-05-23T12:57:55.432Z,3.30
2023-05-23T13:00:22.275Z,3.05
2023-05-23T13:02:50.513Z,3.08
2023-05-23T13:05:17.761Z,3.60
2023-05-23T13:07:44.826Z,3.17
2023-05-23T13:10:11.857Z,2.60
2023-05-23T13:12:38.940Z,2.97
2023-05-23T13:15:06.567Z,2.60
2023-05-23T13:17:33.730Z,2.47
2023-05-23T13:20:01.211Z,2.83
2023-05-23T13:22:29.058Z,2.78
2023-05-23T13:24:55.826Z,3.00
2023-05-23T13:27:22.900Z,2.38
2023-05-23T13:29:49.695Z,2.88
2023-05-23T13:32:16.838Z,2.80
2023-05-23T13:34:43.601Z,2.42
2023-05-23T13:37:10.832Z,2.60
2023-05-23T13:39:37.589Z,2.63
2023-05-23T13:42:04.814Z,2.50
2023-05-23T13:44:31.648Z,2.80
2023-05-23T13:47:11.826Z,2.65
2023-05-23T13:49:39.732Z,2.53
2023-05-23T13:52:06.805Z,2.30
2023-05-23T13:54:33.619Z,2.65
2023-05-23T13:57:01.333Z,2.50
2023-05-23T13:59:28.204Z,2.50
2023-05-23T14:01:55.357Z,2.63
2023-05-23T14:04:23.161Z,2.58
2023-05-23T14:06:50.942Z,2.25
2023-05-23T14:09:18.057Z,2.70
2023-05-23T14:11:45.288Z,2.50
2023-05-23T14:14:12.009Z,2.58
2023-05-23T14:16:39.151Z,2.50
2023-05-23T14:19:06.001Z,2.47
2023-05-23T14:21:33.763Z,2.90
2023-05-23T14:24:00.589Z,2.30
2023-05-23T14:26:27.875Z,2.15
2023-05-23T14:28:54.700Z,2.97
2023-05-23T14:31:22.142Z,2.78
2023-05-23T14:33:50.022Z,2.80
2023-05-23T14:36:17.209Z,3.05
2023-05-23T14:38:46.653Z,3.05
2023-05-23T14:41:14.079Z,2.92
2023-05-23T14:43:41.074Z,2.72
2023-05-23T14:46:09.170Z,2.85
2023-05-23T14:48:36.048Z,3.22
2023-05-23T14:51:03.349Z,3.17
2023-05-23T14:53:30.206Z,3.30
2023-05-23T14:55:57.306Z,3.33
2023-05-23T14:58:25.654Z,3.35
2023-05-23T15:00:52.868Z,3.70
2023-05-23T15:03:19.870Z,3.00
2023-05-23T15:05:49.024Z,3.63
2023-05-23T15:08:17.027Z,3.42
2023-05-23T15:10:45.501Z,3.28
2023-05-23T15:13:12.339Z,3.25
2023-05-23T15:15:40.898Z,3.70
2023-05-23T15:18:10.049Z,3.15
2023-05-23T15:20:37.300Z,3.67
2023-05-23T15:23:04.634Z,3.58
2023-05-23T15:25:48.084Z,3.05
2023-05-23T15:28:16.573Z,3.08
2023-05-23T15:30:44.010Z,3.10
2023-05-23T15:33:12.870Z,2.65
2023-05-23T15:35:40.399Z,3.35
2023-05-23T15:38:07.367Z,3.00
2023-05-23T15:40:34.482Z,3.05
2023-05-23T15:43:01.231Z,3.50
2023-05-23T15:45:28.306Z,3.70
2023-05-23T15:47:55.131Z,3.40
2023-05-23T15:50:22.278Z,3.58
2023-05-23T15:52:49.052Z,3.20
2023-05-23T15:55:16.185Z,2.92
2023-05-23T15:57:42.974Z,3.15
2023-05-23T16:00:10.614Z,3.70
2023-05-23T16:02:37.393Z,3.60
2023-05-23T16:05:04.737Z,3.67
2023-05-23T16:07:31.529Z,3.45
2023-05-23T16:09:58.597Z,3.45
2023-05-23T16:12:25.473Z,3.67
2023-05-23T16:14:52.525Z,3.65
2023-05-23T16:17:19.298Z,3.88
2023-05-23T16:19:46.497Z,3.58
2023-05-23T16:22:13.264Z,3.40
2023-05-23T16:24:40.329Z,3.30
2023-05-23T16:27:07.083Z,3.45
2023-05-23T16:29:34.342Z,3.10
2023-05-23T16:32:01.267Z,3.85
2023-05-23T16:34:28.368Z,3.75
2023-05-23T16:36:55.243Z,3.55
2023-05-23T16:39:22.310Z,3.60
2023-05-23T16:41:49.094Z,3.40
2023-05-23T16:44:16.273Z,3.65
2023-05-23T16:46:43.221Z,3.92
2023-05-23T16:49:11.086Z,3.95
2023-05-23T16:51:37.815Z,3.55
2023-05-23T16:54:05.022Z,4.00
2023-05-23T16:56:31.892Z,3.55
2023-05-23T16:58:58.999Z,4.28
2023-05-23T17:01:25.949Z,3.40
2023-05-23T17:03:53.469Z,4.03
2023-05-23T17:06:20.427Z,3.63
2023-05-23T17:08:47.551Z,4.15
2023-05-23T17:11:14.340Z,4.00
2023-05-23T17:13:41.485Z,4.35
2023-05-23T17:16:08.394Z,4.53
2023-05-23T17:18:36.270Z,3.95
2023-05-23T17:21:03.101Z,3.90
2023-05-23T17:23:30.235Z,3.85
2023-05-23T17:25:56.999Z,4.18
2023-05-23T17:28:24.101Z,4.13
2023-05-23T17:30:51.767Z,4.38
2023-05-23T17:33:19.307Z,4.15
2023-05-23T17:35:46.751Z,4.10
2023-05-23T17:38:13.800Z,4.45
2023-05-23T17:40:41.966Z,4.82
2023-05-23T17:43:09.412Z,4.50
2023-05-23T17:45:36.226Z,4.00
2023-05-23T17:48:04.007Z,4.28
2023-05-23T17:50:31.134Z,4.55
2023-05-23T17:52:59.167Z,4.07
2023-05-23T17:55:26.450Z,4.93
2023-05-23T17:57:53.497Z,4.45
2023-05-23T18:00:21.194Z,4.05
2023-05-23T18:02:48.457Z,4.32
2023-05-23T18:05:15.761Z,4.43
2023-05-23T18:07:42.864Z,4.10
2023-05-23T18:10:09.952Z,3.83
2023-05-23T18:12:37.009Z,3.95
2023-05-23T18:15:04.083Z,3.85
2023-05-23T18:17:31.251Z,4.13
2023-05-23T18:19:58.098Z,4.80
2023-05-23T18:22:25.636Z,4.15
2023-05-23T18:24:52.434Z,4.32
2023-05-23T18:27:19.504Z,4.40
2023-05-23T18:29:47.529Z,3.95
2023-05-23T18:32:15.090Z,3.83
2023-05-23T18:34:42.792Z,4.18
2023-05-23T18:37:09.887Z,4.57
2023-05-23T18:39:36.624Z,5.22
2023-05-23T18:42:04.084Z,4.78
2023-05-23T18:44:31.089Z,4.75
2023-05-23T18:46:58.215Z,4.28
2023-05-23T18:49:25.096Z,4.25
2023-05-23T18:51:54.329Z,4.43
2023-05-23T18:54:21.280Z,4.18
2023-05-23T18:56:48.331Z,4.50
2023-05-23T18:59:16.916Z,4.03
2023-05-23T19:01:44.029Z,4.28
2023-05-23T19:04:10.954Z,4.68
2023-05-23T19:06:38.289Z,4.07
2023-05-23T19:09:09.558Z,4.15
2023-05-23T19:11:37.507Z,4.68
2023-05-23T19:14:04.273Z,4.20
2023-05-23T19:16:31.625Z,4.15
2023-05-23T19:18:58.504Z,4.30
2023-05-23T19:21:26.608Z,4.07
2023-05-23T19:23:53.371Z,4.13
2023-05-23T19:26:20.704Z,4.30
2023-05-23T19:28:47.538Z,4.00
2023-05-23T19:31:14.692Z,4.00
2023-05-23T19:33:41.686Z,3.92
2023-05-23T19:36:08.755Z,3.80
2023-05-23T19:38:36.407Z,3.50
2023-05-23T19:41:03.560Z,3.95
2023-05-23T19:43:30.378Z,4.10
2023-05-23T19:45:57.556Z,3.88
2023-05-23T19:48:24.365Z,3.92
2023-05-23T19:50:51.633Z,3.80
2023-05-23T19:53:18.466Z,3.63
2023-05-23T19:55:45.673Z,4.18
2023-05-23T19:58:12.654Z,5.03
2023-05-23T20:00:40.154Z,3.90
2023-05-23T20:03:07.301Z,4.15
2023-05-23T20:05:34.562Z,4.53
2023-05-23T20:08:01.545Z,5.15
2023-05-23T20:10:28.693Z,4.85
2023-05-23T20:12:55.633Z,4.72
2023-05-23T20:15:38.092Z,5.03
2023-05-23T20:18:05.940Z,5.32
2023-05-23T20:20:33.100Z,5.53
2023-05-23T20:22:59.855Z,4.93
2023-05-23T20:25:29.632Z,5.28
2023-05-23T20:27:56.673Z,5.90
2023-05-23T20:30:23.776Z,5.50
2023-05-23T20:32:53.586Z,4.82
2023-05-23T20:35:23.560Z,5.22
2023-05-23T20:37:53.735Z,4.93
2023-05-23T20:40:22.228Z,5.22
2023-05-23T20:42:49.891Z,5.32
2023-05-23T20:45:17.393Z,4.95
2023-05-23T20:47:44.285Z,5.20
2023-05-23T20:50:12.707Z,5.30
2023-05-23T20:52:41.476Z,4.85
2023-05-23T20:55:08.919Z,5.45
2023-05-23T20:57:36.919Z,5.00
2023-05-23T21:00:13.440Z,4.65
2023-05-23T21:02:40.644Z,5.38
2023-05-23T21:05:08.365Z,5.32
2023-05-23T21:07:35.317Z,5.38
2023-05-23T21:10:02.734Z,5.53
2023-05-23T21:12:29.555Z,4.78
2023-05-23T21:14:57.161Z,4.90
2023-05-23T21:17:24.165Z,5.30
2023-05-23T21:19:51.588Z,5.38
2023-05-23T21:22:18.399Z,4.90
2023-05-23T21:24:45.482Z,4.90
2023-05-23T21:27:12.587Z,5.22
2023-05-23T21:29:39.678Z,4.38
2023-05-23T21:32:06.925Z,4.72
2023-05-23T21:34:34.034Z,4.50
2023-05-23T21:37:00.883Z,4.90
2023-05-23T21:39:39.281Z,4.75
2023-05-23T21:42:14.307Z,5.22
2023-05-23T21:44:41.513Z,4.43
2023-05-23T21:47:08.290Z,5.47
2023-05-23T21:49:35.587Z,5.13
2023-05-23T21:52:02.544Z,4.82
2023-05-23T21:54:29.667Z,4.38
2023-05-23T21:56:56.575Z,4.07
2023-05-23T21:59:23.862Z,4.38
2023-05-23T22:01:50.932Z,4.70
2023-05-23T22:04:21.060Z,4.10
2023-05-23T22:06:47.843Z,4.47
2023-05-23T22:09:15.464Z,4.20
2023-05-23T22:11:42.462Z,4.30
2023-05-23T22:14:09.904Z,4.25
2023-05-23T22:16:39.738Z,4.70
2023-05-23T22:19:08.053Z,4.10
2023-05-23T22:21:34.921Z,4.50
2023-05-23T22:24:01.956Z,4.50
2023-05-23T22:26:28.986Z,4.47
2023-05-23T22:28:56.208Z,4.75
2023-05-23T22:31:24.190Z,4.22
2023-05-23T22:33:51.494Z,4.40
2023-05-23T22:36:18.222Z,4.22
2023-05-23T22:38:45.754Z,4.32
2023-05-23T22:41:12.665Z,4.20
2023-05-23T22:43:40.156Z,4.25
2023-05-23T22:46:07.189Z,4.97
2023-05-23T22:48:35.478Z,4.25
2023-05-23T22:51:02.781Z,4.97
2023-05-23T22:53:30.148Z,4.50
2023-05-23T22:55:57.450Z,4.20
2023-05-23T22:58:24.549Z,3.85
2023-05-23T23:00:51.524Z,4.65
2023-05-23T23:03:18.837Z,4.88
2023-05-23T23:05:46.388Z,4.65
2023-05-23T23:08:13.599Z,5.30
2023-05-23T23:10:41.876Z,4.60
2023-05-23T23:13:09.303Z,4.45
2023-05-23T23:15:36.835Z,5.07
2023-05-23T23:18:05.942Z,4.35
2023-05-23T23:20:33.116Z,5.70
2023-05-23T23:23:00.658Z,4.70
2023-05-23T23:25:27.409Z,5.13
2023-05-23T23:27:54.493Z,4.88
2023-05-23T23:30:21.424Z,4.93
2023-05-23T23:32:48.526Z,5.25
2023-05-23T23:35:15.589Z,5.53
2023-05-23T23:37:42.630Z,5.18
2023-05-23T23:40:09.944Z,5.07
2023-05-23T23:42:37.129Z,5.35
2023-05-23T23:45:04.726Z,5.28
2023-05-23T23:47:32.625Z,5.55
2023-05-23T23:49:59.602Z,5.68
2023-05-23T23:52:28.222Z,5.05
2023-05-23T23:54:55.128Z,5.07
2023-05-23T23:57:22.275Z,5.78
2023-05-23T23:59:49.072Z,5.65
